createdAt,value
2023-12-04T00:00:05.072Z,1006.56
2023-12-04T00:01:05.151Z,1006.59
2023-12-04T00:02:05.213Z,1006.56
2023-12-04T00:03:05.196Z,1006.55
2023-12-04T00:04:05.397Z,1006.54
2023-12-04T00:05:05.335Z,1006.57
2023-12-04T00:06:05.333Z,1006.55
2023-12-04T00:07:05.396Z,1006.54
2023-12-04T00:08:05.430Z,1006.53
2023-12-04T00:09:05.466Z,1006.57
2023-12-04T00:10:05.593Z,1006.47
2023-12-04T00:11:05.659Z,1006.46
2023-12-04T00:12:05.677Z,1006.43
2023-12-04T00:13:05.822Z,1006.41
2023-12-04T00:14:05.709Z,1006.43
2023-12-04T00:15:05.737Z,1006.37
2023-12-04T00:16:05.831Z,1006.38
2023-12-04T00:17:05.853Z,1006.36
2023-12-04T00:18:05.918Z,1006.34
2023-12-04T00:19:06.026Z,1006.32
2023-12-04T00:20:05.978Z,1006.30
2023-12-04T00:21:06.033Z,1006.33
2023-12-04T00:22:06.090Z,1006.34
2023-12-04T00:23:06.095Z,1006.31
2023-12-04T00:24:06.150Z,1006.33
2023-12-04T00:25:06.318Z,1006.36
2023-12-04T00:26:06.240Z,1006.34
2023-12-04T00:27:06.288Z,1006.34
2023-12-04T00:28:06.350Z,1006.35
2023-12-04T00:29:06.433Z,1006.29
2023-12-04T00:30:06.434Z,1006.33
2023-12-04T00:31:06.539Z,1006.33
2023-12-04T00:32:06.514Z,1006.28
2023-12-04T00:33:06.663Z,1006.27
2023-12-04T00:34:06.674Z,1006.23
2023-12-04T00:35:06.639Z,1006.22
2023-12-04T00:36:06.680Z,1006.21
2023-12-04T00:37:06.754Z,1006.21
2023-12-04T00:38:06.772Z,1006.17
2023-12-04T00:39:06.856Z,1006.14
2023-12-04T00:40:06.986Z,1006.15
2023-12-04T00:41:06.926Z,1006.13
2023-12-04T00:42:06.958Z,1006.15
2023-12-04T00:43:07.025Z,1006.15
2023-12-04T00:44:07.062Z,1006.18
2023-12-04T00:45:07.085Z,1006.15
2023-12-04T00:46:07.172Z,1006.15
2023-12-04T00:47:07.201Z,1006.18
2023-12-04T00:48:07.293Z,1006.16
2023-12-04T00:49:07.329Z,1006.13
2023-12-04T00:50:07.317Z,1006.14
2023-12-04T00:51:07.353Z,1006.15
2023-12-04T00:52:07.420Z,1006.13
2023-12-04T00:53:07.451Z,1006.14
2023-12-04T00:54:07.493Z,1006.13
2023-12-04T00:55:07.564Z,1006.14
2023-12-04T00:56:07.578Z,1006.11
2023-12-04T00:57:07.623Z,1006.08
2023-12-04T00:58:07.712Z,1006.10
2023-12-04T00:59:07.716Z,1006.13
2023-12-04T01:00:07.802Z,1006.07
2023-12-04T01:01:07.850Z,1006.08
2023-12-04T01:02:07.865Z,1006.10
2023-12-04T01:03:07.947Z,1006.06
2023-12-04T01:04:07.964Z,1006.11
2023-12-04T01:05:07.984Z,1006.02
2023-12-04T01:06:08.042Z,1006.01
2023-12-04T01:07:08.102Z,1006.05
2023-12-04T01:08:08.113Z,1006.01
2023-12-04T01:09:08.161Z,1006.02
2023-12-04T01:10:08.236Z,1006.01
2023-12-04T01:11:08.246Z,1006.01
2023-12-04T01:12:08.294Z,1005.99
2023-12-04T01:13:08.347Z,1006.03
2023-12-04T01:14:08.382Z,1005.99
2023-12-04T01:15:08.427Z,1006.03
2023-12-04T01:16:08.515Z,1006.01
2023-12-04T01:17:08.521Z,1005.95
2023-12-04T01:18:08.845Z,1005.90
2023-12-04T01:19:08.654Z,1005.93
2023-12-04T01:20:08.650Z,1005.90
2023-12-04T01:21:08.693Z,1005.85
2023-12-04T01:22:08.763Z,1005.87
2023-12-04T01:23:08.784Z,1005.87
2023-12-04T01:24:08.832Z,1005.86
2023-12-04T01:25:09.019Z,1005.82
2023-12-04T01:26:08.922Z,1005.81
2023-12-04T01:27:08.973Z,1005.80
2023-12-04T01:28:09.031Z,1005.77
2023-12-04T01:29:09.056Z,1005.75
2023-12-04T01:30:09.112Z,1005.76
2023-12-04T01:31:09.145Z,1005.73
2023-12-04T01:32:09.212Z,1005.75
2023-12-04T01:33:09.279Z,1005.76
2023-12-04T01:34:09.313Z,1005.75
2023-12-04T01:35:09.317Z,1005.73
2023-12-04T01:36:09.365Z,1005.74
2023-12-04T01:37:09.412Z,1005.76
2023-12-04T01:38:09.460Z,1005.75
2023-12-04T01:39:09.499Z,1005.75
2023-12-04T01:40:09.565Z,1005.74
2023-12-04T01:41:09.594Z,1005.73
2023-12-04T01:42:09.633Z,1005.71
2023-12-04T01:43:09.698Z,1005.69
2023-12-04T01:44:09.722Z,1005.67
2023-12-04T01:45:09.764Z,1005.62
2023-12-04T01:46:09.844Z,1005.62
2023-12-04T01:47:09.856Z,1005.61
2023-12-04T01:48:09.950Z,1005.67
2023-12-04T01:49:10.063Z,1005.64
2023-12-04T01:50:10.012Z,1005.70
2023-12-04T01:51:10.035Z,1005.64
2023-12-04T01:52:10.178Z,1005.60
2023-12-04T01:53:10.123Z,1005.57
2023-12-04T01:54:10.171Z,1005.62
2023-12-04T01:55:10.272Z,1005.63
2023-12-04T01:56:10.273Z,1005.59
2023-12-04T01:57:10.308Z,1005.56
2023-12-04T01:58:10.392Z,1005.57
2023-12-04T01:59:10.392Z,1005.53
2023-12-04T02:00:10.435Z,1005.54
2023-12-04T02:01:10.509Z,1005.53
2023-12-04T02:02:10.519Z,1005.53
2023-12-04T02:03:10.581Z,1005.51
2023-12-04T02:04:10.696Z,1005.50
2023-12-04T02:05:10.666Z,1005.46
2023-12-04T02:06:10.717Z,1005.49
2023-12-04T02:07:11.121Z,1005.42
2023-12-04T02:08:10.791Z,1005.43
2023-12-04T02:09:10.831Z,1005.43
2023-12-04T02:10:10.932Z,1005.39
2023-12-04T02:11:10.925Z,1005.37
2023-12-04T02:12:10.980Z,1005.36
2023-12-04T02:13:11.020Z,1005.34
2023-12-04T02:14:11.062Z,1005.29
2023-12-04T02:15:11.109Z,1005.31
2023-12-04T02:16:11.149Z,1005.32
2023-12-04T02:17:11.191Z,1005.34
2023-12-04T02:18:11.294Z,1005.36
2023-12-04T02:19:11.366Z,1005.27
2023-12-04T02:20:11.328Z,1005.31
2023-12-04T02:21:11.373Z,1005.35
2023-12-04T02:22:11.430Z,1005.26
2023-12-04T02:23:11.459Z,1005.26
2023-12-04T02:24:11.533Z,1005.22
2023-12-04T02:25:21.540Z,1005.21
2023-12-04T02:26:11.589Z,1005.19
2023-12-04T02:27:11.647Z,1005.16
2023-12-04T02:28:11.700Z,1005.14
2023-12-04T02:29:11.735Z,1005.14
2023-12-04T02:30:11.764Z,1005.14
2023-12-04T02:31:11.857Z,1005.18
2023-12-04T02:32:11.858Z,1005.12
2023-12-04T02:33:11.956Z,1005.14
2023-12-04T02:34:12.037Z,1005.12
2023-12-04T02:35:11.992Z,1005.12
2023-12-04T02:36:12.034Z,1005.09
2023-12-04T02:37:12.172Z,1005.12
2023-12-04T02:38:12.147Z,1005.13
2023-12-04T02:39:12.165Z,1005.10
2023-12-04T02:40:12.242Z,1005.09
2023-12-04T02:41:12.256Z,1005.06
2023-12-04T02:42:12.300Z,1005.04
2023-12-04T02:43:12.374Z,1005.03
2023-12-04T02:44:12.396Z,1005.01
2023-12-04T02:45:12.433Z,1005.03
2023-12-04T02:46:12.508Z,1005.07
2023-12-04T02:47:12.522Z,1005.02
2023-12-04T02:48:12.689Z,1005.02
2023-12-04T02:49:12.644Z,1005.00
2023-12-04T02:50:12.662Z,1004.96
2023-12-04T02:51:12.702Z,1004.93
2023-12-04T02:52:12.769Z,1004.89
2023-12-04T02:53:12.793Z,1004.90
2023-12-04T02:54:12.868Z,1004.92
2023-12-04T02:55:12.917Z,1004.90
2023-12-04T02:56:12.926Z,1004.85
2023-12-04T02:57:12.995Z,1004.84
2023-12-04T02:58:13.076Z,1004.84
2023-12-04T02:59:13.061Z,1004.89
2023-12-04T03:00:13.096Z,1004.88
2023-12-04T03:01:13.167Z,1004.88
2023-12-04T03:02:13.197Z,1004.90
2023-12-04T03:03:13.305Z,1004.88
2023-12-04T03:04:13.325Z,1004.84
2023-12-04T03:05:13.326Z,1004.79
2023-12-04T03:06:13.383Z,1004.80
2023-12-04T03:07:13.450Z,1004.75
2023-12-04T03:08:13.452Z,1004.72
2023-12-04T03:09:13.495Z,1004.72
2023-12-04T03:10:13.641Z,1004.70
2023-12-04T03:11:13.582Z,1004.73
2023-12-04T03:12:13.628Z,1004.71
2023-12-04T03:13:13.684Z,1004.69
2023-12-04T03:14:13.870Z,1004.63
2023-12-04T03:15:13.761Z,1004.60
2023-12-04T03:16:13.805Z,1004.60
2023-12-04T03:17:13.849Z,1004.58
2023-12-04T03:18:13.938Z,1004.56
2023-12-04T03:19:14.045Z,1004.53
2023-12-04T03:20:13.980Z,1004.55
2023-12-04T03:21:14.030Z,1004.55
2023-12-04T03:22:14.161Z,1004.57
2023-12-04T03:23:14.116Z,1004.57
2023-12-04T03:24:14.162Z,1004.55
2023-12-04T03:25:14.271Z,1004.54
2023-12-04T03:26:14.304Z,1004.55
2023-12-04T03:27:14.295Z,1004.48
2023-12-04T03:28:14.436Z,1004.52
2023-12-04T03:29:14.378Z,1004.54
2023-12-04T03:30:14.422Z,1004.53
2023-12-04T03:31:14.517Z,1004.59
2023-12-04T03:32:14.519Z,1004.52
2023-12-04T03:33:14.654Z,1004.53
2023-12-04T03:34:14.666Z,1004.53
2023-12-04T03:35:14.646Z,1004.45
2023-12-04T03:36:14.692Z,1004.52
2023-12-04T03:37:14.862Z,1004.45
2023-12-04T03:38:14.778Z,1004.50
2023-12-04T03:39:14.838Z,1004.49
2023-12-04T03:40:14.905Z,1004.48
2023-12-04T03:41:14.910Z,1004.50
2023-12-04T03:42:14.980Z,1004.48
2023-12-04T03:43:15.024Z,1004.48
2023-12-04T03:44:15.072Z,1004.45
2023-12-04T03:45:15.101Z,1004.45
2023-12-04T03:46:15.184Z,1004.44
2023-12-04T03:47:15.178Z,1004.43
2023-12-04T03:48:15.293Z,1004.40
2023-12-04T03:49:15.345Z,1004.38
2023-12-04T03:50:15.320Z,1004.32
2023-12-04T03:51:15.359Z,1004.32
2023-12-04T03:52:15.457Z,1004.36
2023-12-04T03:53:15.446Z,1004.30
2023-12-04T03:54:15.494Z,1004.31
2023-12-04T03:55:15.649Z,1004.34
2023-12-04T03:56:15.584Z,1004.30
2023-12-04T03:57:15.618Z,1004.33
2023-12-04T03:58:15.722Z,1004.32
2023-12-04T03:59:15.707Z,1004.30
2023-12-04T04:00:15.777Z,1004.33
2023-12-04T04:01:15.891Z,1004.27
2023-12-04T04:02:15.841Z,1004.23
2023-12-04T04:03:15.909Z,1004.28
2023-12-04T04:04:15.971Z,1004.29
2023-12-04T04:05:15.983Z,1004.27
2023-12-04T04:06:16.015Z,1004.26
2023-12-04T04:07:16.172Z,1004.25
2023-12-04T04:08:16.110Z,1004.23
2023-12-04T04:09:16.151Z,1004.17
2023-12-04T04:10:16.249Z,1004.19
2023-12-04T04:11:16.275Z,1004.19
2023-12-04T04:12:16.296Z,1004.19
2023-12-04T04:13:16.347Z,1004.17
2023-12-04T04:14:16.555Z,1004.11
2023-12-04T04:15:16.417Z,1004.14
2023-12-04T04:16:16.512Z,1004.09
2023-12-04T04:17:16.503Z,1004.14
2023-12-04T04:18:16.631Z,1004.13
2023-12-04T04:19:16.696Z,1004.13
2023-12-04T04:20:16.636Z,1004.12
2023-12-04T04:21:16.690Z,1004.09
2023-12-04T04:22:16.750Z,1004.09
2023-12-04T04:23:16.770Z,1004.11
2023-12-04T04:24:16.843Z,1004.08
2023-12-04T04:25:16.885Z,1004.09
2023-12-04T04:26:16.916Z,1004.18
2023-12-04T04:27:16.950Z,1004.11
2023-12-04T04:28:17.001Z,1004.11
2023-12-04T04:29:17.049Z,1004.08
2023-12-04T04:30:17.103Z,1004.12
2023-12-04T04:31:17.183Z,1004.09
2023-12-04T04:32:17.168Z,1004.07
2023-12-04T04:33:17.231Z,1004.09
2023-12-04T04:34:17.343Z,1004.04
2023-12-04T04:35:17.304Z,1004.02
2023-12-04T04:36:17.345Z,1004.08
2023-12-04T04:37:17.392Z,1004.02
2023-12-04T04:38:17.440Z,1004.00
2023-12-04T04:39:17.483Z,1003.98
2023-12-04T04:40:17.523Z,1004.00
2023-12-04T04:41:17.580Z,1003.97
2023-12-04T04:42:17.612Z,1003.97
2023-12-04T04:43:17.679Z,1003.96
2023-12-04T04:44:17.701Z,1003.91
2023-12-04T04:45:17.745Z,1003.92
2023-12-04T04:46:17.816Z,1003.93
2023-12-04T04:47:17.835Z,1003.96
2023-12-04T04:48:17.888Z,1003.89
2023-12-04T04:49:17.994Z,1003.90
2023-12-04T04:50:17.971Z,1003.91
2023-12-04T04:51:18.023Z,1003.93
2023-12-04T04:52:18.060Z,1003.89
2023-12-04T04:53:18.104Z,1003.89
2023-12-04T04:54:18.146Z,1003.94
2023-12-04T04:55:46.032Z,1003.93
2023-12-04T04:56:18.235Z,1003.96
2023-12-04T04:57:18.280Z,1003.93
2023-12-04T04:58:18.324Z,1003.95
2023-12-04T04:59:18.367Z,1003.86
2023-12-04T05:00:18.422Z,1003.85
2023-12-04T05:01:18.485Z,1003.84
2023-12-04T05:02:18.519Z,1003.82
2023-12-04T05:03:18.629Z,1003.78
2023-12-04T05:04:18.780Z,1003.74
2023-12-04T05:05:18.737Z,1003.76
2023-12-04T05:06:18.759Z,1003.80
2023-12-04T05:07:18.759Z,1003.80
2023-12-04T05:08:18.761Z,1003.80
2023-12-04T05:09:18.804Z,1003.77
2023-12-04T05:10:19.008Z,1003.77
2023-12-04T05:11:18.896Z,1003.79
2023-12-04T05:12:18.947Z,1003.78
2023-12-04T05:13:18.982Z,1003.77
2023-12-04T05:14:19.030Z,1003.74
2023-12-04T05:15:19.142Z,1003.72
2023-12-04T05:16:19.143Z,1003.72
2023-12-04T05:17:19.158Z,1003.69
2023-12-04T05:18:19.229Z,1003.64
2023-12-04T05:19:19.306Z,1003.61
2023-12-04T05:20:19.328Z,1003.57
2023-12-04T05:21:19.484Z,1003.60
2023-12-04T05:22:19.413Z,1003.60
2023-12-04T05:23:19.427Z,1003.60
2023-12-04T05:24:19.487Z,1003.53
2023-12-04T05:25:19.526Z,1003.54
2023-12-04T05:26:19.562Z,1003.52
2023-12-04T05:27:19.606Z,1003.52
2023-12-04T05:28:19.907Z,1003.52
2023-12-04T05:29:19.698Z,1003.50
2023-12-04T05:30:19.749Z,1003.48
2023-12-04T05:31:19.818Z,1003.48
2023-12-04T05:32:19.829Z,1003.45
2023-12-04T05:33:19.967Z,1003.49
2023-12-04T05:34:19.996Z,1003.53
2023-12-04T05:35:19.963Z,1003.48
2023-12-04T05:36:20.009Z,1003.48
2023-12-04T05:37:20.064Z,1003.54
2023-12-04T05:38:20.098Z,1003.54
2023-12-04T05:39:20.139Z,1003.51
2023-12-04T05:40:20.241Z,1003.51
2023-12-04T05:41:20.231Z,1003.48
2023-12-04T05:42:20.269Z,1003.50
2023-12-04T05:43:20.397Z,1003.48
2023-12-04T05:44:20.368Z,1003.47
2023-12-04T05:45:20.430Z,1003.46
2023-12-04T05:46:20.475Z,1003.43
2023-12-04T05:47:20.491Z,1003.43
2023-12-04T05:48:20.561Z,1003.45
2023-12-04T05:49:20.665Z,1003.43
2023-12-04T05:50:20.655Z,1003.39
2023-12-04T05:51:20.681Z,1003.36
2023-12-04T05:52:20.713Z,1003.31
2023-12-04T05:53:20.764Z,1003.26
2023-12-04T05:54:20.807Z,1003.22
2023-12-04T05:55:20.849Z,1003.24
2023-12-04T05:56:20.896Z,1003.14
2023-12-04T05:57:20.948Z,1003.04
2023-12-04T05:58:21.031Z,1003.01
2023-12-04T05:59:21.062Z,1003.00
2023-12-04T06:00:21.097Z,1003.02
2023-12-04T06:01:21.125Z,1002.97
2023-12-04T06:02:21.270Z,1002.98
2023-12-04T06:03:21.215Z,1002.97
2023-12-04T06:04:21.271Z,1002.93
2023-12-04T06:05:21.334Z,1002.91
2023-12-04T06:06:21.377Z,1002.86
2023-12-04T06:07:21.403Z,1002.86
2023-12-04T06:08:21.443Z,1002.95
2023-12-04T06:09:21.485Z,1003.00
2023-12-04T06:10:21.549Z,1002.95
2023-12-04T06:11:21.579Z,1002.93
2023-12-04T06:12:21.640Z,1002.93
2023-12-04T06:13:21.746Z,1002.94
2023-12-04T06:14:21.730Z,1002.92
2023-12-04T06:15:21.759Z,1002.90
2023-12-04T06:16:21.803Z,1002.89
2023-12-04T06:17:21.855Z,1002.87
2023-12-04T06:18:21.976Z,1002.84
2023-12-04T06:19:22.023Z,1002.79
2023-12-04T06:20:21.985Z,1002.75
2023-12-04T06:21:22.028Z,1002.73
2023-12-04T06:22:22.094Z,1002.71
2023-12-04T06:23:22.129Z,1002.69
2023-12-04T06:24:22.182Z,1002.70
2023-12-04T06:25:22.201Z,1002.68
2023-12-04T06:26:22.251Z,1002.66
2023-12-04T06:27:22.297Z,1002.61
2023-12-04T06:28:22.372Z,1002.61
2023-12-04T06:29:22.387Z,1002.58
2023-12-04T06:30:22.427Z,1002.55
2023-12-04T06:31:22.475Z,1002.52
2023-12-04T06:32:22.533Z,1002.49
2023-12-04T06:33:22.564Z,1002.45
2023-12-04T06:34:22.660Z,1002.43
2023-12-04T06:35:22.655Z,1002.42
2023-12-04T06:36:22.709Z,1002.40
2023-12-04T06:37:22.766Z,1002.40
2023-12-04T06:38:22.806Z,1002.39
2023-12-04T06:39:22.829Z,1002.37
2023-12-04T06:40:22.888Z,1002.35
2023-12-04T06:41:22.922Z,1002.36
2023-12-04T06:42:22.975Z,1002.35
2023-12-04T06:43:23.039Z,1002.34
2023-12-04T06:44:23.058Z,1002.39
2023-12-04T06:45:23.098Z,1002.38
2023-12-04T06:46:23.157Z,1002.39
2023-12-04T06:47:23.252Z,1002.35
2023-12-04T06:48:23.274Z,1002.31
2023-12-04T06:49:23.391Z,1002.33
2023-12-04T06:50:23.328Z,1002.35
2023-12-04T06:51:23.383Z,1002.32
2023-12-04T06:52:23.414Z,1002.34
2023-12-04T06:53:23.457Z,1002.34
2023-12-04T06:54:23.523Z,1002.32
2023-12-04T06:55:23.575Z,1002.31
2023-12-04T06:56:23.604Z,1002.29
2023-12-04T06:57:23.641Z,1002.29
2023-12-04T06:58:23.697Z,1002.27
2023-12-04T06:59:23.729Z,1002.27
2023-12-04T07:00:23.821Z,1002.29
2023-12-04T07:01:23.849Z,1002.29
2023-12-04T07:02:23.864Z,1002.28
2023-12-04T07:03:24.033Z,1002.29
2023-12-04T07:04:24.072Z,1002.30
2023-12-04T07:05:24.081Z,1002.28
2023-12-04T07:06:24.044Z,1002.31
2023-12-04T07:07:24.096Z,1002.34
2023-12-04T07:08:24.140Z,1002.33
2023-12-04T07:09:24.179Z,1002.32
2023-12-04T07:10:24.254Z,1002.32
2023-12-04T07:11:24.280Z,1002.30
2023-12-04T07:12:24.315Z,1002.34
2023-12-04T07:13:24.359Z,1002.34
2023-12-04T07:14:24.402Z,1002.33
2023-12-04T07:15:24.453Z,1002.35
2023-12-04T07:16:24.494Z,1002.38
2023-12-04T07:17:24.613Z,1002.32
2023-12-04T07:18:24.669Z,1002.31
2023-12-04T07:19:24.655Z,1002.32
2023-12-04T07:20:24.677Z,1002.34
2023-12-04T07:21:24.730Z,1002.37
2023-12-04T07:22:24.767Z,1002.37
2023-12-04T07:23:27.910Z,1002.40
2023-12-04T07:24:24.851Z,1002.37
2023-12-04T07:25:24.899Z,1002.37
2023-12-04T07:26:24.970Z,1002.31
2023-12-04T07:27:25.005Z,1002.32
2023-12-04T07:28:25.094Z,1002.28
2023-12-04T07:29:25.077Z,1002.28
2023-12-04T07:30:25.130Z,1002.30
2023-12-04T07:31:25.171Z,1002.28
2023-12-04T07:32:25.219Z,1002.24
2023-12-04T07:33:25.363Z,1002.20
2023-12-04T07:34:25.403Z,1002.16
2023-12-04T07:35:25.363Z,1002.17
2023-12-04T07:36:25.389Z,1002.15
2023-12-04T07:37:25.986Z,1002.09
2023-12-04T07:38:28.588Z,1002.06
2023-12-04T07:39:25.531Z,1002.05
2023-12-04T07:40:25.625Z,1002.04
2023-12-04T07:41:25.618Z,1002.06
2023-12-04T07:42:25.695Z,1002.04
2023-12-04T07:43:25.735Z,1002.09
2023-12-04T07:44:25.754Z,1002.05
2023-12-04T07:45:25.868Z,1001.98
2023-12-04T07:46:25.863Z,1001.98
2023-12-04T07:47:26.357Z,1001.99
2023-12-04T07:48:25.943Z,1002.00
2023-12-04T07:49:26.041Z,1002.04
2023-12-04T07:50:26.025Z,1002.05
2023-12-04T07:51:26.068Z,1002.00
2023-12-04T07:52:26.117Z,1002.03
2023-12-04T07:53:26.157Z,1002.03
2023-12-04T07:54:26.202Z,1001.98
2023-12-04T07:55:26.248Z,1002.00
2023-12-04T07:56:26.295Z,1002.02
2023-12-04T07:57:26.343Z,1002.04
2023-12-04T07:58:26.405Z,1002.02
2023-12-04T07:59:26.432Z,1002.02
2023-12-04T08:00:26.482Z,1002.04
2023-12-04T08:01:26.562Z,1002.03
2023-12-04T08:02:26.569Z,1001.98
2023-12-04T08:03:26.633Z,1002.03
2023-12-04T08:04:26.688Z,1002.02
2023-12-04T08:05:26.703Z,1002.00
2023-12-04T08:06:26.780Z,1001.98
2023-12-04T08:07:26.825Z,1001.95
2023-12-04T08:08:26.840Z,1001.91
2023-12-04T08:09:26.895Z,1001.91
2023-12-04T08:10:26.930Z,1001.85
2023-12-04T08:11:26.979Z,1001.86
2023-12-04T08:12:27.022Z,1001.89
2023-12-04T08:13:27.065Z,1001.90
2023-12-04T08:14:27.134Z,1001.90
2023-12-04T08:15:27.158Z,1001.89
2023-12-04T08:16:27.204Z,1001.90
2023-12-04T08:17:27.285Z,1001.93
2023-12-04T08:18:27.309Z,1001.93
2023-12-04T08:19:27.507Z,1001.90
2023-12-04T08:20:33.892Z,1001.89
2023-12-04T08:21:27.430Z,1001.92
2023-12-04T08:22:27.488Z,1001.87
2023-12-04T08:23:27.548Z,1001.87
2023-12-04T08:24:27.574Z,1001.86
2023-12-04T08:25:27.616Z,1001.82
2023-12-04T08:26:27.655Z,1001.81
2023-12-04T08:27:27.708Z,1001.76
2023-12-04T08:28:27.752Z,1001.73
2023-12-04T08:29:27.810Z,1001.70
2023-12-04T08:30:27.876Z,1001.70
2023-12-04T08:31:27.887Z,1001.71
2023-12-04T08:32:27.982Z,1001.73
2023-12-04T08:33:28.010Z,1001.72
2023-12-04T08:34:28.026Z,1001.68
2023-12-04T08:35:28.116Z,1001.66
2023-12-04T08:36:28.122Z,1001.64
2023-12-04T08:37:28.185Z,1001.64
2023-12-04T08:38:28.317Z,1001.63
2023-12-04T08:39:28.258Z,1001.67
2023-12-04T08:40:28.300Z,1001.69
2023-12-04T08:41:28.347Z,1001.65
2023-12-04T08:42:28.400Z,1001.67
2023-12-04T08:43:28.436Z,1001.69
2023-12-04T08:44:28.497Z,1001.66
2023-12-04T08:45:28.534Z,1001.64
2023-12-04T08:46:28.634Z,1001.68
2023-12-04T08:47:28.658Z,1001.66
2023-12-04T08:48:28.918Z,1001.65
2023-12-04T08:49:36.014Z,1001.62
2023-12-04T08:50:28.766Z,1001.63
2023-12-04T08:51:28.811Z,1001.67
2023-12-04T08:52:28.852Z,1001.73
2023-12-04T08:53:28.977Z,1001.71
2023-12-04T08:54:28.949Z,1001.70
2023-12-04T08:55:29.120Z,1001.71
2023-12-04T08:56:31.477Z,1001.68
2023-12-04T08:57:29.115Z,1001.65
2023-12-04T08:58:29.159Z,1001.68
2023-12-04T08:59:29.247Z,1001.65
2023-12-04T09:00:29.222Z,1001.62
2023-12-04T09:01:29.346Z,1001.60
2023-12-04T09:02:29.390Z,1001.63
2023-12-04T09:03:32.464Z,1001.60
2023-12-04T09:04:29.611Z,1001.61
2023-12-04T09:05:29.516Z,1001.57
2023-12-04T09:08:35.922Z,1001.60
2023-12-04T09:09:29.689Z,1001.58
2023-12-04T09:10:40.918Z,1001.59
2023-12-04T09:11:29.789Z,1001.60
2023-12-04T09:12:29.772Z,1001.55
2023-12-04T09:13:29.814Z,1001.54
2023-12-04T09:14:29.867Z,1001.53
2023-12-04T09:15:30.072Z,1001.52
2023-12-04T09:16:29.954Z,1001.56
2023-12-04T09:17:36.257Z,1001.50
2023-12-04T09:18:30.265Z,1001.49
2023-12-04T09:19:30.204Z,1001.51
2023-12-04T09:20:30.149Z,1001.46
2023-12-04T09:21:30.198Z,1001.51
2023-12-04T09:22:34.674Z,1001.52
2023-12-04T09:23:30.285Z,1001.54
2023-12-04T09:24:30.351Z,1001.53
2023-12-04T09:25:30.412Z,1001.54
2023-12-04T09:26:30.423Z,1001.53
2023-12-04T09:27:30.481Z,1001.56
2023-12-04T09:28:30.508Z,1001.53
2023-12-04T09:29:30.553Z,1001.54
2023-12-04T09:30:30.606Z,1001.53
2023-12-04T09:31:30.703Z,1001.51
2023-12-04T09:32:30.746Z,1001.51
2023-12-04T09:33:30.821Z,1001.49
2023-12-04T09:34:30.800Z,1001.51
2023-12-04T09:35:30.850Z,1001.56
2023-12-04T09:36:30.910Z,1001.48
2023-12-04T09:37:30.918Z,1001.48
2023-12-04T09:38:30.982Z,1001.47
2023-12-04T09:39:31.097Z,1001.49
2023-12-04T09:40:31.066Z,1001.43
2023-12-04T09:41:31.106Z,1001.42
2023-12-04T09:42:31.203Z,1001.38
2023-12-04T09:43:31.597Z,1001.38
2023-12-04T09:44:31.254Z,1001.34
2023-12-04T09:45:31.338Z,1001.33
2023-12-04T09:46:31.372Z,1001.25
2023-12-04T09:47:31.415Z,1001.29
2023-12-04T09:48:31.694Z,1001.30
2023-12-04T09:49:31.815Z,1001.31
2023-12-04T09:50:31.754Z,1001.29
2023-12-04T09:51:31.564Z,1001.28
2023-12-04T09:52:31.617Z,1001.25
2023-12-04T09:53:31.667Z,1001.19
2023-12-04T09:54:31.728Z,1001.21
2023-12-04T09:55:31.759Z,1001.21
2023-12-04T09:56:31.802Z,1001.22
2023-12-04T09:57:31.920Z,1001.22
2023-12-04T09:58:31.896Z,1001.25
2023-12-04T09:59:31.966Z,1001.21
2023-12-04T10:00:32.022Z,1001.23
2023-12-04T10:01:32.809Z,1001.24
2023-12-04T10:02:32.226Z,1001.18
2023-12-04T10:03:32.174Z,1001.17
2023-12-04T10:04:32.181Z,1001.16
2023-12-04T10:05:32.251Z,1001.15
2023-12-04T10:06:32.330Z,1001.12
2023-12-04T10:07:32.325Z,1001.10
2023-12-04T10:08:32.385Z,1001.05
2023-12-04T10:09:32.430Z,1001.04
2023-12-04T10:10:32.461Z,1001.00
2023-12-04T10:11:32.522Z,1001.02
2023-12-04T10:12:32.615Z,1000.98
2023-12-04T10:13:56.704Z,1000.98
2023-12-04T10:14:32.646Z,1000.98
2023-12-04T10:15:32.719Z,1000.91
2023-12-04T10:16:32.784Z,1000.89
2023-12-04T10:17:32.836Z,1000.83
2023-12-04T10:18:33.185Z,1000.84
2023-12-04T10:19:32.951Z,1000.81
2023-12-04T10:20:32.934Z,1000.79
2023-12-04T10:21:33.052Z,1000.78
2023-12-04T10:22:33.057Z,1000.69
2023-12-04T10:23:33.073Z,1000.66
2023-12-04T10:24:33.236Z,1000.66
2023-12-04T10:25:33.170Z,1000.67
2023-12-04T10:26:33.217Z,1000.59
2023-12-04T10:27:33.291Z,1000.55
2023-12-04T10:28:33.315Z,1000.50
2023-12-04T10:29:33.356Z,1000.48
2023-12-04T10:30:33.409Z,1000.45
2023-12-04T10:31:33.453Z,1000.41
2023-12-04T10:32:33.578Z,1000.40
2023-12-04T10:33:33.648Z,1000.38
2023-12-04T10:34:33.609Z,1000.33
2023-12-04T10:35:33.639Z,1000.23
2023-12-04T10:36:33.715Z,1000.24
2023-12-04T10:37:33.735Z,1000.23
2023-12-04T10:38:33.806Z,1000.18
2023-12-04T10:39:33.847Z,1000.15
2023-12-04T10:40:33.882Z,1000.15
2023-12-04T10:41:33.938Z,1000.12
2023-12-04T10:42:34.076Z,1000.12
2023-12-04T10:43:34.017Z,1000.12
2023-12-04T10:44:34.100Z,1000.08
2023-12-04T10:45:34.118Z,1000.05
2023-12-04T10:46:34.307Z,1000.05
2023-12-04T10:47:34.282Z,1000.02
2023-12-04T10:48:34.424Z,999.97
2023-12-04T10:49:34.397Z,999.99
2023-12-04T10:50:34.362Z,999.96
2023-12-04T10:51:34.546Z,999.93
2023-12-04T10:52:34.443Z,999.91
2023-12-04T10:53:34.508Z,999.89
2023-12-04T10:54:34.605Z,999.85
2023-12-04T10:55:34.569Z,999.85
2023-12-04T10:56:34.631Z,999.83
2023-12-04T10:57:34.751Z,999.80
2023-12-04T10:58:34.709Z,999.85
2023-12-04T10:59:34.759Z,999.80
2023-12-04T11:00:34.893Z,999.74
2023-12-04T11:01:34.943Z,999.76
2023-12-04T11:02:35.107Z,999.70
2023-12-04T11:03:35.029Z,999.66
2023-12-04T11:04:34.989Z,999.63
2023-12-04T11:05:35.057Z,999.59
2023-12-04T11:06:35.098Z,999.56
2023-12-04T11:08:12.368Z,999.54
2023-12-04T11:08:35.186Z,999.58
2023-12-04T11:09:35.229Z,999.48
2023-12-04T11:10:35.291Z,999.49
2023-12-04T11:11:35.326Z,999.43
2023-12-04T11:12:35.390Z,999.40
2023-12-04T11:13:35.407Z,999.39
2023-12-04T11:14:35.465Z,999.38
2023-12-04T11:15:35.506Z,999.33
2023-12-04T11:16:35.558Z,999.33
2023-12-04T11:17:35.601Z,999.31
2023-12-04T11:18:35.703Z,999.28
2023-12-04T11:19:35.848Z,999.29
2023-12-04T11:20:35.738Z,999.25
2023-12-04T11:21:35.790Z,999.26
2023-12-04T11:22:35.832Z,999.26
2023-12-04T11:23:35.888Z,999.26
2023-12-04T11:24:35.932Z,999.25
2023-12-04T11:25:36.007Z,999.21
2023-12-04T11:26:36.031Z,999.17
2023-12-04T11:27:36.194Z,999.19
2023-12-04T11:28:36.119Z,999.18
2023-12-04T11:29:36.141Z,999.16
2023-12-04T11:30:36.199Z,999.12
2023-12-04T11:31:36.236Z,999.12
2023-12-04T11:32:36.314Z,999.10
2023-12-04T11:33:36.355Z,999.06
2023-12-04T11:34:36.611Z,999.05
2023-12-04T11:35:36.424Z,999.04
2023-12-04T11:36:36.492Z,999.05
2023-12-04T11:37:36.514Z,999.01
2023-12-04T11:38:36.566Z,998.99
2023-12-04T11:39:37.004Z,998.95
2023-12-04T11:40:36.654Z,998.94
2023-12-04T11:41:36.701Z,998.95
2023-12-04T11:42:36.832Z,998.91
2023-12-04T11:43:36.789Z,998.90
2023-12-04T11:44:36.841Z,998.93
2023-12-04T11:45:36.954Z,998.82
2023-12-04T11:46:36.928Z,998.84
2023-12-04T11:47:37.010Z,998.79
2023-12-04T11:48:37.051Z,998.79
2023-12-04T11:49:37.192Z,998.80
2023-12-04T11:50:37.125Z,998.80
2023-12-04T11:51:37.175Z,998.80
2023-12-04T11:52:37.214Z,998.79
2023-12-04T11:53:37.251Z,998.73
2023-12-04T11:54:37.316Z,998.71
2023-12-04T11:55:37.338Z,998.71
2023-12-04T11:56:37.398Z,998.70
2023-12-04T11:57:37.467Z,998.65
2023-12-04T11:58:37.672Z,998.65
2023-12-04T11:59:37.526Z,998.62
2023-12-04T12:00:37.629Z,998.66
2023-12-04T12:01:37.794Z,998.60
2023-12-04T12:03:14.325Z,998.60
2023-12-04T12:03:37.911Z,998.60
2023-12-04T12:04:37.865Z,998.61
2023-12-04T12:05:37.889Z,998.54
2023-12-04T12:06:37.941Z,998.55
2023-12-04T12:07:37.956Z,998.52
2023-12-04T12:08:37.942Z,998.56
2023-12-04T12:09:38.148Z,998.52
2023-12-04T12:10:38.032Z,998.48